Terminal Aerodrome Forecast
Issued by NWS Lake Charles, LA

Home | Current Version | Previous Version | Text Only | Print | Product List | Glossary On
Versions: 1 2 3 4 5 6 7 8 9 10 11 12 13 14
000
FTUS44 KLCH 212320
TAFLFT
TAF
KLFT 212320Z 2200/2224 VRB05KT P6SM VCSH SCT035 BKN050
      TEMPO 2200/2203 2SM -SHRA BKN025
     FM220300 03006KT P6SM VCSH BKN050
     FM221500 02012G20KT P6SM SCT035=

USA.gov is the U.S. government's official web portal to all federal, state and local government web resources and services.